Time;durP1;ratioP1;P1;durP2;ratioP2;P2;SDS_P1;SDS_P2;PMS_P1;PMS_P2;Temp;Humidity;BMP_temperature;BMP_pressure;BME280_temperature;BME280_humidity;BME280_pressure;Samples;Min_cycle;Max_cycle;Signal;HPM_P1;HPM_P2
2022/10/07 00:00:00;;;;;;;6.67;6.00;;;;;;;15.50;83.23;100850.22;1707582;84;21107;-77
2022/10/07 00:02:26;;;;;;;5.53;5.05;;;;;;;15.51;83.29;100851.08;1718931;82;21126;-78
2022/10/07 00:04:53;;;;;;;6.92;4.83;;;;;;;15.49;83.36;100850.50;1713275;82;21098;-77
2022/10/07 00:07:21;;;;;;;6.42;5.45;;;;;;;15.46;83.38;100846.39;1708999;83;21060;-74
2022/10/07 00:09:48;;;;;;;6.05;5.53;;;;;;;15.44;83.50;100849.08;1708672;83;21051;-73
2022/10/07 00:12:14;;;;;;;6.45;4.85;;;;;;;15.41;83.64;100841.44;1708265;82;21087;-74
2022/10/07 00:14:42;;;;;;;6.80;5.33;;;;;;;15.37;83.79;100843.02;1709296;84;21490;-72
2022/10/07 00:17:10;;;;;;;7.72;5.47;;;;;;;15.36;84.08;100846.27;1681121;84;21064;-74
2022/10/07 00:19:37;;;;;;;8.03;5.60;;;;;;;15.34;84.24;100855.73;1709109;84;21137;-74
2022/10/07 00:22:03;;;;;;;8.18;5.75;;;;;;;15.31;84.56;100851.63;1709096;84;21096;-76
2022/10/07 00:24:30;;;;;;;5.95;5.42;;;;;;;15.26;84.66;100848.31;1707608;82;21103;-77
2022/10/07 00:26:57;;;;;;;7.17;5.95;;;;;;;15.23;84.86;100851.55;1708105;84;21270;-78
2022/10/07 00:29:24;;;;;;;7.80;5.03;;;;;;;15.17;85.17;100852.55;1709079;83;21002;-74
2022/10/07 00:31:51;;;;;;;8.65;5.47;;;;;;;15.12;85.56;100853.00;1709194;84;21093;-74
2022/10/07 00:34:19;;;;;;;6.65;6.05;;;;;;;15.09;85.90;100863.00;1716477;82;21065;-76
2022/10/07 00:36:45;;;;;;;10.00;5.62;;;;;;;15.05;86.24;100863.22;1713975;82;21115;-73
2022/10/07 00:39:14;;;;;;;6.65;5.97;;;;;;;15.03;86.43;100864.82;1695247;83;22089;-74
2022/10/07 00:41:49;;;;;;;6.47;5.85;;;;;;;15.00;86.80;100861.80;1711806;83;20997;-69
2022/10/07 00:44:39;;;;;;;8.18;5.97;;;;;;;14.95;87.10;100863.91;1710008;83;21096;-74
2022/10/07 00:47:26;;;;;;;9.48;5.55;;;;;;;14.92;87.44;100869.80;1703901;84;20994;-74
2022/10/07 00:50:13;;;;;;;6.60;5.80;;;;;;;14.89;87.91;100874.37;1696858;83;21321;-75
2022/10/07 00:52:45;;;;;;;10.45;5.80;;;;;;;14.88;88.24;100880.03;1639447;86;21537;-74
2022/10/07 00:55:16;;;;;;;7.25;5.47;;;;;;;14.87;88.48;100879.77;1656078;86;21085;-74
2022/10/07 00:57:44;;;;;;;8.68;6.17;;;;;;;14.86;88.55;100883.02;1682555;83;21128;-72
2022/10/07 01:00:13;;;;;;;6.10;5.50;;;;;;;14.83;88.78;100888.91;1623934;86;21599;-69
2022/10/07 01:02:41;;;;;;;5.62;5.10;;;;;;;14.78;89.10;100888.30;1673208;85;21066;-74
2022/10/07 01:05:09;;;;;;;7.75;5.33;;;;;;;14.74;89.40;100886.34;1682138;85;21128;-69
2022/10/07 01:07:37;;;;;;;8.15;5.45;;;;;;;14.71;89.71;100890.91;1681276;85;21276;-70
2022/10/07 01:10:05;;;;;;;6.47;5.87;;;;;;;14.68;89.98;100888.14;1656870;85;22291;-70
2022/10/07 01:12:56;;;;;;;11.53;6.55;;;;;;;14.64;90.40;100891.59;1676654;84;22241;-71
2022/10/07 01:15:52;;;;;;;8.55;6.45;;;;;;;14.62;90.40;100891.86;1656744;86;21645;-71
2022/10/07 01:18:41;;;;;;;5.85;5.35;;;;;;;14.61;90.71;100893.45;1655491;86;21299;-70
2022/10/07 01:21:34;;;;;;;9.65;6.90;;;;;;;14.55;91.11;100899.31;1653482;86;21032;-69
2022/10/07 01:24:37;;;;;;;7.25;5.45;;;;;;;14.50;91.42;100895.17;1655382;86;21065;-70
2022/10/07 01:27:13;;;;;;;7.33;5.77;;;;;;;14.48;91.84;100908.68;1656932;86;22341;-69
2022/10/07 01:29:54;;;;;;;6.40;5.47;;;;;;;14.45;92.21;100902.38;1665921;84;21361;-70
2022/10/07 01:32:37;;;;;;;8.40;6.17;;;;;;;14.40;92.76;100911.23;1684726;84;21777;-69
2022/10/07 01:35:12;;;;;;;6.53;5.95;;;;;;;14.37;93.10;100912.56;1684998;84;21575;-70
2022/10/07 01:37:43;;;;;;;7.17;6.15;;;;;;;14.33;93.39;100914.09;1682945;84;21032;-69
2022/10/07 01:40:14;;;;;;;7.58;6.75;;;;;;;14.29;93.86;100914.27;1683312;84;21107;-70
2022/10/07 01:42:40;;;;;;;6.30;5.75;;;;;;;14.27;94.11;100923.70;1667774;85;21564;-69
2022/10/07 01:45:09;;;;;;;6.87;6.28;;;;;;;14.24;94.44;100922.86;1667054;85;21182;-70
2022/10/07 01:47:39;;;;;;;7.10;6.40;;;;;;;14.21;94.74;100920.62;1681834;84;21162;-69
2022/10/07 01:50:13;;;;;;;7.45;6.70;;;;;;;14.19;95.07;100924.11;1703645;83;20980;-69
2022/10/07 01:53:14;;;;;;;8.08;6.17;;;;;;;14.13;95.36;100923.20;1702448;83;21612;-69
2022/10/07 01:55:49;;;;;;;6.15;5.60;;;;;;;14.08;95.74;100919.58;1724961;83;21092;-70
2022/10/07 01:58:34;;;;;;;7.97;6.15;;;;;;;14.00;96.25;100928.91;1713097;83;21121;-70
2022/10/07 02:01:21;;;;;;;8.03;6.22;;;;;;;13.96;96.78;100923.67;1711587;83;21093;-70
2022/10/07 02:04:12;;;;;;;8.80;6.67;;;;;;;13.93;97.21;100931.75;1678738;84;21032;-69
2022/10/07 02:07:00;;;;;;;8.18;6.60;;;;;;;13.89;97.75;100930.59;1701795;84;21016;-70
2022/10/07 02:09:42;;;;;;;7.40;6.70;;;;;;;13.86;98.25;100933.77;1584448;88;21034;-70
2022/10/07 02:12:17;;;;;;;;;;;;;;;13.84;98.76;100933.73;1650256;85;21764;-69
2022/10/07 02:14:52;;;;;;;11.85;6.45;;;;;;;13.83;99.15;100946.43;1727894;82;20165;-69
2022/10/07 02:17:20;;;;;;;7.70;6.67;;;;;;;13.83;99.54;100946.95;1723761;82;21803;-70
2022/10/07 02:19:52;;;;;;;8.68;6.95;;;;;;;13.79;99.99;100948.50;1681455;85;20993;-70
2022/10/07 02:22:18;;;;;;;8.95;7.75;;;;;;;13.78;100.00;100957.67;1702387;84;21557;-71
2022/10/07 02:24:46;;;;;;;7.15;6.45;;;;;;;13.76;100.00;100959.28;1703089;84;22030;-70
2022/10/07 02:27:17;;;;;;;6.85;6.05;;;;;;;13.76;100.00;100966.57;1710731;83;21040;-69
2022/10/07 02:29:44;;;;;;;11.03;5.97;;;;;;;13.75;100.00;100959.52;1683145;83;21035;-70
2022/10/07 02:32:14;;;;;;;8.58;5.03;;;;;;;13.78;100.00;100961.72;1745528;81;21021;-69
2022/10/07 02:34:44;;;;;;;10.05;6.72;;;;;;;13.79;100.00;100972.84;1755024;81;21660;-72
2022/10/07 02:37:23;;;;;;;8.93;6.60;;;;;;;13.81;100.00;100969.37;1754079;81;22535;-69
2022/10/07 02:39:49;;;;;;;5.20;4.75;;;;;;;13.81;100.00;100978.28;1724616;83;21059;-70
2022/10/07 02:42:25;;;;;;;8.73;6.95;;;;;;;13.75;100.00;100979.27;1725115;83;21032;-68
2022/10/07 02:44:55;;;;;;;13.88;10.10;;;;;;;13.73;99.67;100979.20;1725465;83;21018;-70
2022/10/07 02:47:43;;;;;;;53.28;32.00;;;;;;;13.69;99.22;100991.56;1725081;83;21095;-72
2022/10/07 02:50:13;;;;;;;72.10;39.53;;;;;;;13.63;98.48;100986.56;1690976;83;21827;-70
2022/10/07 02:52:40;;;;;;;42.73;27.32;;;;;;;13.62;97.81;100980.06;1723756;81;20976;-70
2022/10/07 02:55:11;;;;;;;26.35;18.48;;;;;;;13.58;97.34;100985.63;1756533;81;20985;-71
2022/10/07 02:57:45;;;;;;;16.80;11.78;;;;;;;13.57;97.37;100989.42;1728454;83;21090;-72
2022/10/07 03:00:12;;;;;;;10.00;7.12;;;;;;;13.56;97.41;100986.42;1710331;83;21106;-70
2022/10/07 03:02:52;;;;;;;7.47;6.42;;;;;;;13.51;97.26;100988.48;1702252;83;21108;-70
2022/10/07 03:05:20;;;;;;;8.65;5.62;;;;;;;13.50;97.21;101005.75;1698369;83;21565;-70
2022/10/07 03:07:53;;;;;;;10.95;6.28;;;;;;;13.48;97.16;101005.16;1680763;83;21028;-70
2022/10/07 03:10:20;;;;;;;6.97;6.08;;;;;;;13.44;97.08;101004.81;1728872;82;21050;-72
2022/10/07 03:12:47;;;;;;;6.12;5.62;;;;;;;13.38;96.97;101005.75;1733651;81;20992;-71
2022/10/07 03:15:13;;;;;;;7.00;5.97;;;;;;;13.33;97.12;101009.69;1761098;81;21260;-71
2022/10/07 03:17:40;;;;;;;5.72;4.65;;;;;;;13.31;97.12;101006.41;1761625;81;20976;-70
2022/10/07 03:20:09;;;;;;;6.05;5.45;;;;;;;13.26;97.28;101013.05;1719943;83;21098;-71
2022/10/07 03:22:36;;;;;;;8.63;6.00;;;;;;;13.19;97.56;101015.59;1705790;83;21012;-70
2022/10/07 03:25:05;;;;;;;7.40;5.42;;;;;;;13.15;97.73;101007.63;1729868;83;21064;-71
2022/10/07 03:27:33;;;;;;;7.15;5.72;;;;;;;13.13;97.99;101011.94;1705019;83;21039;-72
2022/10/07 03:30:00;;;;;;;6.30;4.85;;;;;;;13.10;97.98;101021.28;1729195;82;21087;-70
2022/10/07 03:32:27;;;;;;;8.15;6.22;;;;;;;13.11;98.05;101016.74;1729618;83;21012;-73
2022/10/07 03:34:54;;;;;;;9.50;5.70;;;;;;;13.09;98.02;101018.28;1728949;83;21086;-70
2022/10/07 03:37:22;;;;;;;6.70;6.05;;;;;;;13.07;98.04;101020.41;1728368;82;23847;-75
2022/10/07 03:39:51;;;;;;;12.03;6.15;;;;;;;13.02;98.23;101018.94;1729405;83;21157;-74
2022/10/07 03:42:18;;;;;;;10.05;5.83;;;;;;;12.96;98.59;101017.16;1748696;81;21052;-71
2022/10/07 03:44:47;;;;;;;6.08;5.17;;;;;;;12.92;98.97;101025.44;1759795;81;20938;-73
2022/10/07 03:47:17;;;;;;;12.80;5.45;;;;;;;12.90;99.40;101019.44;1759907;81;20941;-71
2022/10/07 03:49:44;;;;;;;11.75;6.72;;;;;;;12.86;99.55;101020.95;1745948;81;21102;-72
2022/10/07 03:52:11;;;;;;;6.60;5.42;;;;;;;12.85;99.64;101018.52;1755867;81;21146;-70
2022/10/07 03:54:37;;;;;;;11.08;6.67;;;;;;;12.81;99.81;101021.35;1756472;81;21016;-69
2022/10/07 03:57:48;;;;;;;7.87;6.47;;;;;;;12.78;99.79;101022.66;1756470;81;20949;-68
2022/10/07 03:59:37;;;;;;;13.70;6.42;;;;;;;12.75;99.90;101025.83;1742138;81;21049;-70
2022/10/07 04:02:06;;;;;;;7.70;5.75;;;;;;;12.70;100.00;101039.20;1726325;83;21048;-69
2022/10/07 04:04:33;;;;;;;12.15;5.72;;;;;;;12.67;100.00;101039.64;1723425;83;21133;-70
2022/10/07 04:07:00;;;;;;;6.85;5.60;;;;;;;12.65;100.00;101034.49;1724960;83;20921;-69
2022/10/07 04:09:29;;;;;;;6.50;5.65;;;;;;;12.63;100.00;101036.58;1725175;83;21134;-71
2022/10/07 04:11:56;;;;;;;10.28;5.37;;;;;;;12.62;100.00;101047.08;1747542;81;21057;-72
2022/10/07 04:14:22;;;;;;;11.60;6.37;;;;;;;12.59;99.87;101043.50;1756841;81;21494;-67
2022/10/07 04:16:49;;;;;;;7.42;5.60;;;;;;;12.57;99.69;101042.06;1756590;81;21153;-69
2022/10/07 04:19:16;;;;;;;8.85;6.05;;;;;;;12.52;99.33;101043.28;1740950;81;21121;-70
2022/10/07 04:21:43;;;;;;;8.73;4.87;;;;;;;12.50;99.22;101045.41;1726353;83;21044;-77
2022/10/07 04:24:10;;;;;;;8.75;5.80;;;;;;;12.46;98.97;101042.34;1726536;83;21031;-71
2022/10/07 04:26:37;;;;;;;12.50;5.95;;;;;;;12.44;98.87;101046.31;1713485;83;21023;-70
2022/10/07 04:29:04;;;;;;;7.05;5.35;;;;;;;12.45;98.63;101049.31;1712077;83;21205;-71
2022/10/07 04:31:31;;;;;;;8.23;5.83;;;;;;;12.41;98.28;101053.00;1725119;83;21088;-73
2022/10/07 04:34:01;;;;;;;6.20;5.08;;;;;;;12.38;98.01;101056.66;1724852;83;21081;-69
2022/10/07 04:36:29;;;;;;;8.88;4.92;;;;;;;12.29;97.67;101045.37;1724635;83;20980;-70
2022/10/07 04:39:00;;;;;;;8.15;5.67;;;;;;;12.24;97.44;101054.14;1699271;83;21104;-70
2022/10/07 04:41:29;;;;;;;6.17;4.97;;;;;;;12.24;97.20;101062.23;1684637;83;21215;-74
2022/10/07 04:43:55;;;;;;;7.25;5.65;;;;;;;12.23;96.75;101061.94;1708846;84;21601;-69
2022/10/07 04:46:22;;;;;;;7.05;4.30;;;;;;;12.22;96.37;101067.05;1708805;84;21534;-69
2022/10/07 04:48:50;;;;;;;6.92;4.92;;;;;;;12.20;95.79;101071.84;1716480;81;21082;-70
2022/10/07 04:51:21;;;;;;;7.70;4.62;;;;;;;12.21;95.42;101066.75;1733624;81;21087;-70
2022/10/07 04:53:51;;;;;;;11.22;5.83;;;;;;;12.16;94.83;101081.96;1710785;83;21170;-67
2022/10/07 04:56:21;;;;;;;6.12;4.47;;;;;;;12.14;94.81;101075.44;1707497;84;21521;-67
2022/10/07 04:58:47;;;;;;;8.73;4.15;;;;;;;12.15;94.54;101072.22;1709293;84;21526;-67
2022/10/07 05:01:15;;;;;;;6.72;4.03;;;;;;;12.15;94.46;101082.48;1720920;82;21555;-67
2022/10/07 05:03:44;;;;;;;10.98;5.12;;;;;;;12.19;94.33;101086.37;1700795;83;21093;-68
2022/10/07 05:06:11;;;;;;;5.53;4.12;;;;;;;12.22;94.12;101095.91;1712376;83;21209;-70
2022/10/07 05:08:41;;;;;;;5.90;4.42;;;;;;;12.23;94.03;101086.21;1736030;81;21497;-71
2022/10/07 05:11:09;;;;;;;8.30;4.53;;;;;;;12.25;93.98;101085.99;1720968;82;21059;-70
2022/10/07 05:13:38;;;;;;;6.75;4.15;;;;;;;12.27;93.85;101093.88;1750943;81;21053;-67
2022/10/07 05:16:10;;;;;;;5.83;4.80;;;;;;;12.26;93.85;101090.34;1740281;82;20988;-69
2022/10/07 05:18:37;;;;;;;7.95;4.50;;;;;;;12.28;93.89;101090.13;1740272;82;22070;-70
2022/10/07 05:21:06;;;;;;;11.65;5.28;;;;;;;12.29;93.78;101088.53;1713291;83;21039;-68
2022/10/07 05:23:35;;;;;;;6.60;4.37;;;;;;;12.29;93.65;101097.15;1687776;83;21070;-69
2022/10/07 05:26:06;;;;;;;4.87;4.05;;;;;;;12.30;93.49;101097.45;1710721;83;21028;-69
2022/10/07 05:28:34;;;;;;;6.05;4.10;;;;;;;12.30;93.31;101099.62;1667213;83;21085;-69
2022/10/07 05:31:11;;;;;;;7.92;4.17;;;;;;;12.31;93.23;101101.28;1730347;82;21835;-67
2022/10/07 05:33:38;;;;;;;12.37;4.45;;;;;;;12.33;92.95;101105.91;1700720;83;21000;-70
2022/10/07 05:36:06;;;;;;;5.50;4.45;;;;;;;12.37;92.54;101115.22;1717078;83;21535;-68
2022/10/07 05:38:35;;;;;;;10.58;4.33;;;;;;;12.42;92.45;101117.23;1686626;84;21067;-68
2022/10/07 05:41:05;;;;;;;9.58;4.28;;;;;;;12.47;91.92;101117.39;1664157;85;21069;-69
2022/10/07 05:43:35;;;;;;;8.25;4.85;;;;;;;12.50;91.41;101116.40;1679096;83;22160;-70
2022/10/07 05:46:05;;;;;;;9.75;4.67;;;;;;;12.51;90.63;101119.92;1723468;83;21054;-69
2022/10/07 05:48:34;;;;;;;6.20;3.70;;;;;;;12.53;90.53;101121.85;1701921;84;21030;-69
2022/10/07 05:51:02;;;;;;;5.37;3.87;;;;;;;12.58;90.31;101121.47;1707087;82;21086;-68
2022/10/07 05:53:29;;;;;;;7.20;3.98;;;;;;;12.65;90.09;101117.34;1721940;82;21035;-70
2022/10/07 05:55:56;;;;;;;6.15;3.72;;;;;;;12.70;89.60;101124.23;1722401;83;21190;-68
2022/10/07 05:58:24;;;;;;;6.12;4.15;;;;;;;12.76;89.38;101132.75;1700839;83;21600;-70
2022/10/07 06:00:57;;;;;;;7.50;3.42;;;;;;;12.78;88.93;101135.23;1722362;83;21618;-70
2022/10/07 06:03:25;;;;;;;8.50;3.83;;;;;;;12.80;88.97;101135.84;1701702;83;21595;-71
2022/10/07 06:05:52;;;;;;;10.53;3.98;;;;;;;12.80;88.51;101129.91;1723731;83;21033;-70
2022/10/07 06:08:21;;;;;;;7.65;5.28;;;;;;;12.83;88.38;101147.52;1736532;81;21245;-71
2022/10/07 06:13:36;;;;;;;4.85;3.37;;;;;;;12.88;87.86;101134.98;1735445;81;21092;-71
2022/10/07 06:16:07;;;;;;;8.38;3.87;;;;;;;12.89;87.89;101149.31;1753877;81;22177;-71
2022/10/07 06:18:36;;;;;;;4.37;3.67;;;;;;;12.91;87.56;101147.19;1753919;81;21524;-70
2022/10/07 06:21:05;;;;;;;9.35;4.42;;;;;;;12.94;87.65;101154.84;1734389;81;21264;-70
2022/10/07 06:23:32;;;;;;;9.40;3.58;;;;;;;12.98;87.42;101159.56;1723376;83;21036;-71
2022/10/07 06:26:03;;;;;;;5.92;3.35;;;;;;;13.04;86.97;101161.88;1723596;83;21104;-68
2022/10/07 06:28:38;;;;;;;5.35;3.52;;;;;;;13.08;86.32;101159.83;1704232;81;21099;-68
2022/10/07 06:31:07;;;;;;;7.70;3.72;;;;;;;13.14;86.18;101162.14;1751215;81;21091;-70
2022/10/07 06:33:34;;;;;;;12.10;4.40;;;;;;;13.17;86.18;101166.28;1718379;81;21202;-71
2022/10/07 06:36:04;;;;;;;3.35;3.05;;;;;;;13.22;85.89;101169.12;1753567;81;21532;-68
2022/10/07 06:38:30;;;;;;;10.08;3.87;;;;;;;13.21;85.40;101166.94;1732435;81;20995;-70
2022/10/07 06:40:58;;;;;;;6.33;3.10;;;;;;;13.21;85.09;101170.16;1733939;81;21579;-70
2022/10/07 06:43:27;;;;;;;10.90;4.25;;;;;;;13.24;85.32;101168.34;1704099;83;21084;-71
2022/10/07 06:46:03;;;;;;;11.33;3.90;;;;;;;13.28;84.73;101168.20;1721095;83;21242;-71
2022/10/07 06:48:32;;;;;;;5.67;3.10;;;;;;;13.29;84.26;101165.77;1740798;81;21040;-70
2022/10/07 06:51:02;;;;;;;7.03;3.37;;;;;;;13.35;84.31;101163.50;1751036;81;21032;-72
2022/10/07 06:53:29;;;;;;;7.62;3.10;;;;;;;13.38;83.91;101171.95;1676403;84;21079;-71
2022/10/07 06:56:03;;;;;;;6.92;3.72;;;;;;;13.41;83.16;101169.33;1721911;83;21028;-69
2022/10/07 06:58:32;;;;;;;8.90;3.65;;;;;;;13.42;83.21;101175.05;1721411;82;22014;-70
2022/10/07 07:00:59;;;;;;;12.82;3.62;;;;;;;13.45;83.21;101179.45;1721656;83;21110;-71
2022/10/07 07:03:26;;;;;;;11.73;4.25;;;;;;;13.52;82.94;101176.09;1711118;83;21531;-71
2022/10/07 07:05:57;;;;;;;10.90;3.60;;;;;;;13.54;81.60;101181.28;1711955;83;21017;-70
2022/10/07 07:08:30;;;;;;;6.85;3.45;;;;;;;13.57;81.21;101175.95;1734516;81;21096;-71
2022/10/07 07:10:54;;;;;;;5.90;2.98;;;;;;;13.60;81.27;101180.36;1721275;82;21020;-74
2022/10/07 07:13:21;;;;;;;10.25;3.60;;;;;;;13.62;81.03;101180.13;1710762;83;21027;-71
2022/10/07 07:15:54;;;;;;;7.55;3.20;;;;;;;13.64;81.44;101183.41;1709660;83;20987;-73
2022/10/07 07:18:22;;;;;;;5.85;3.30;;;;;;;13.69;81.29;101186.23;1710495;83;21084;-72
2022/10/07 07:20:50;;;;;;;8.10;3.33;;;;;;;13.77;80.96;101183.18;1710691;83;21039;-70
2022/10/07 07:23:17;;;;;;;8.35;2.90;;;;;;;13.84;80.56;101181.20;1736491;82;21254;-70
2022/10/07 07:25:44;;;;;;;9.50;3.15;;;;;;;13.94;80.18;101182.79;1741463;82;20983;-70
2022/10/07 07:28:13;;;;;;;4.80;2.92;;;;;;;14.01;79.48;101185.36;1723957;82;21043;-68
2022/10/07 07:30:40;;;;;;;5.55;2.95;;;;;;;14.07;78.65;101174.95;1685433;83;21260;-70
2022/10/07 07:33:08;;;;;;;12.30;4.58;;;;;;;14.09;77.87;101171.50;1710608;83;21044;-69
2022/10/07 07:35:40;;;;;;;14.18;3.33;;;;;;;14.07;76.65;101168.19;1710676;83;20944;-70
2022/10/07 07:38:07;;;;;;;4.83;3.37;;;;;;;14.07;77.07;101166.30;1707885;82;21568;-70
2022/10/07 07:40:38;;;;;;;8.93;3.02;;;;;;;14.10;76.68;101160.41;1710827;83;21924;-68
2022/10/07 07:43:06;;;;;;;7.00;2.77;;;;;;;14.12;76.77;101158.30;1710781;83;22297;-70
2022/10/07 07:45:36;;;;;;;10.95;3.27;;;;;;;14.17;76.39;101162.48;1710478;83;21047;-72
2022/10/07 07:48:05;;;;;;;4.92;3.27;;;;;;;14.23;76.04;101160.71;1710853;83;21952;-70
2022/10/07 07:50:34;;;;;;;7.87;2.60;;;;;;;14.30;75.80;101159.50;1711858;83;21012;-71
2022/10/07 07:53:03;;;;;;;6.92;3.05;;;;;;;14.37;74.71;101155.36;1689944;83;21100;-76
2022/10/07 07:55:30;;;;;;;9.43;3.08;;;;;;;14.40;73.68;101159.75;1682577;85;21110;-69
2022/10/07 07:57:57;;;;;;;5.42;3.00;;;;;;;14.47;74.12;101158.81;1671848;83;21086;-70
2022/10/07 08:00:24;;;;;;;8.38;3.20;;;;;;;14.52;74.57;101167.86;1650062;85;21316;-70
2022/10/07 08:02:54;;;;;;;8.15;2.98;;;;;;;14.56;74.77;101156.84;1682546;85;21002;-68
2022/10/07 08:05:23;;;;;;;7.10;2.87;;;;;;;14.59;74.36;101161.77;1697584;83;21556;-71
2022/10/07 08:07:51;;;;;;;4.08;2.62;;;;;;;14.63;73.88;101152.09;1711965;83;21070;-68
2022/10/07 08:10:19;;;;;;;9.50;2.62;;;;;;;14.67;73.61;101164.11;1711306;83;21579;-70
2022/10/07 08:12:46;;;;;;;8.65;3.12;;;;;;;14.73;73.22;101159.06;1686915;83;22139;-74
2022/10/07 08:15:14;;;;;;;3.58;2.60;;;;;;;14.80;72.47;101162.99;1686505;83;21032;-70
2022/10/07 08:17:42;;;;;;;5.08;3.62;;;;;;;14.86;70.91;101163.39;1690375;83;21154;-67
2022/10/07 08:20:09;;;;;;;6.83;3.17;;;;;;;14.92;70.20;101160.22;1685616;83;21710;-70
2022/10/07 08:22:38;;;;;;;8.55;3.12;;;;;;;14.91;70.50;101163.48;1665856;85;21098;-69
2022/10/07 08:25:06;;;;;;;6.37;4.10;;;;;;;14.90;69.37;101163.19;1682544;85;21631;-69
2022/10/07 08:27:34;;;;;;;7.78;2.77;;;;;;;14.95;69.39;101160.58;1683134;85;21111;-70
2022/10/07 08:30:01;;;;;;;13.22;4.35;;;;;;;15.01;69.47;101157.44;1682477;85;21076;-72
2022/10/07 08:32:29;;;;;;;5.75;2.77;;;;;;;15.09;68.94;101159.74;1696960;83;21086;-71
2022/10/07 08:34:56;;;;;;;5.90;2.35;;;;;;;15.13;68.12;101158.19;1722541;82;21055;-71
2022/10/07 08:37:23;;;;;;;4.25;2.27;;;;;;;15.17;68.14;101157.98;1715764;82;21334;-69
2022/10/07 08:39:49;;;;;;;6.05;3.20;;;;;;;15.22;67.57;101166.20;1717109;82;20977;-71
2022/10/07 08:42:36;;;;;;;6.22;2.72;;;;;;;15.25;66.70;101165.73;1712787;83;20994;-69
2022/10/07 08:45:03;;;;;;;4.78;2.27;;;;;;;15.27;66.05;101168.48;1712821;83;21184;-71
2022/10/07 08:47:35;;;;;;;6.33;2.42;;;;;;;15.30;66.43;101164.44;1694055;83;21557;-71
2022/10/07 08:50:15;;;;;;;5.37;2.57;;;;;;;15.35;67.08;101164.53;1684751;85;21245;-68
2022/10/07 08:52:55;;;;;;;7.40;2.55;;;;;;;15.40;67.32;101161.91;1662210;85;21085;-69
2022/10/07 08:55:42;;;;;;;4.55;2.05;;;;;;;15.46;66.40;101168.23;1719136;83;21095;-69
2022/10/07 08:58:35;;;;;;;6.50;2.17;;;;;;;15.50;65.15;101168.03;1726862;82;21148;-69
2022/10/07 09:01:16;;;;;;;4.90;2.40;;;;;;;15.54;64.65;101165.97;1709779;83;21603;-71
2022/10/07 09:04:19;;;;;;;9.98;3.47;;;;;;;15.58;64.66;101163.61;1672502;83;22719;-68
2022/10/07 09:07:15;;;;;;;;;;;;;;;15.60;64.33;101162.27;1711781;83;21140;-68
2022/10/07 09:09:47;;;;;;;;;;;;;;;15.63;63.92;101161.77;1710563;83;20182;-70
2022/10/07 09:12:24;;;;;;;6.47;2.55;;;;;;;15.69;63.53;101156.72;1708093;84;20210;-70
2022/10/07 09:14:55;;;;;;;19.02;7.85;;;;;;;15.76;62.60;101147.59;1707601;83;21009;-69
2022/10/07 09:17:27;;;;;;;9.70;4.85;;;;;;;15.78;61.09;101144.91;1708323;83;21527;-71
2022/10/07 09:19:57;;;;;;;5.47;3.37;;;;;;;15.80;61.45;101142.78;1718948;83;20992;-71
2022/10/07 09:22:36;;;;;;;7.35;2.98;;;;;;;15.79;60.66;101137.59;1711542;83;21069;-70
2022/10/07 09:25:22;;;;;;;4.80;2.25;;;;;;;15.81;61.51;101139.00;1710932;83;20984;-67
2022/10/07 09:27:50;;;;;;;5.28;2.50;;;;;;;15.89;61.64;101144.53;1684652;83;21132;-70
2022/10/07 09:30:20;;;;;;;4.12;2.25;;;;;;;15.95;60.58;101142.19;1710841;83;21315;-67
2022/10/07 09:32:55;;;;;;;7.50;2.37;;;;;;;16.01;60.56;101141.20;1710587;83;21519;-68
2022/10/07 09:35:24;;;;;;;6.03;3.17;;;;;;;16.08;60.50;101131.78;1710629;83;21001;-70
2022/10/07 09:38:07;;;;;;;5.03;1.92;;;;;;;16.17;60.55;101130.81;1710910;83;21011;-68
2022/10/07 09:43:31;;;;;;;3.80;1.85;;;;;;;16.33;60.68;101145.41;1710549;83;21086;-70
2022/10/07 09:45:58;;;;;;;5.87;2.10;;;;;;;16.39;59.66;101149.31;1727890;82;20949;-68
2022/10/07 09:48:28;;;;;;;7.28;2.50;;;;;;;16.44;59.84;101142.58;1711946;83;21076;-72
2022/10/07 09:51:18;;;;;;;6.47;2.02;;;;;;;16.47;60.05;101141.24;1710555;83;21042;-72
2022/10/07 09:54:01;;;;;;;6.40;1.77;;;;;;;16.50;59.73;101140.72;1694235;82;21072;-72
2022/10/07 09:56:38;;;;;;;4.10;1.67;;;;;;;16.50;59.06;101126.61;1708165;83;21135;-70
2022/10/07 09:59:25;;;;;;;4.60;1.65;;;;;;;16.53;59.16;101131.55;1704924;84;21571;-78
2022/10/07 10:02:10;;;;;;;5.12;1.90;;;;;;;16.56;58.55;101139.72;1703006;83;21553;-75
2022/10/07 10:04:37;;;;;;;5.83;2.42;;;;;;;16.55;56.90;101130.75;1717725;83;21506;-78
2022/10/07 10:07:29;;;;;;;11.95;2.77;;;;;;;16.55;56.77;101121.77;1707462;83;21683;-75
2022/10/07 10:10:17;;;;;;;7.25;3.10;;;;;;;16.59;56.06;101129.75;1719450;83;21787;-76
2022/10/07 10:12:47;;;;;;;5.78;2.08;;;;;;;16.61;56.24;101118.61;1704453;83;21088;-73
2022/10/07 10:15:39;;;;;;;2.45;1.30;;;;;;;16.63;55.22;101126.80;1712155;83;20975;-75
2022/10/07 10:18:38;;;;;;;4.30;1.45;;;;;;;16.63;53.94;101123.27;1706030;82;21096;-74
2022/10/07 10:21:29;;;;;;;7.08;1.50;;;;;;;16.63;53.77;101120.55;1719350;83;21551;-85
2022/10/07 10:24:00;;;;;;;3.15;1.72;;;;;;;16.61;53.98;101108.57;1703932;84;21571;-73
2022/10/07 10:26:56;;;;;;;3.90;1.90;;;;;;;16.67;54.30;101110.27;1703457;84;21014;-73
2022/10/07 10:29:54;;;;;;;3.20;1.98;;;;;;;16.74;53.58;101118.23;1719884;83;20987;-71
2022/10/07 10:33:06;;;;;;;4.37;1.77;;;;;;;16.83;53.07;101110.73;1704243;84;21576;-70
2022/10/07 10:36:02;;;;;;;2.22;1.65;;;;;;;16.89;52.48;101100.17;1681446;83;21076;-79
2022/10/07 10:39:00;;;;;;;3.55;1.70;;;;;;;16.98;51.84;101111.39;1704159;83;21179;-75
2022/10/07 10:41:35;;;;;;;3.20;1.82;;;;;;;17.00;50.06;101102.45;1704844;83;21003;-73
2022/10/07 10:44:32;;;;;;;4.75;2.10;;;;;;;17.05;51.58;101101.14;1705259;84;20985;-74
2022/10/07 10:47:16;;;;;;;7.75;2.00;;;;;;;17.12;52.18;101095.50;1716949;83;21092;-72
2022/10/07 10:50:22;;;;;;;7.53;2.60;;;;;;;17.16;51.36;101101.52;1702106;83;21031;-72
2022/10/07 10:53:30;;;;;;;4.83;2.20;;;;;;;17.18;51.34;101083.03;1688771;84;21908;-81
2022/10/07 10:56:22;;;;;;;3.75;2.10;;;;;;;17.26;51.02;101098.06;1716517;82;21049;-76
2022/10/07 10:59:08;;;;;;;6.22;2.17;;;;;;;17.24;50.27;101090.69;1683626;85;21568;-74
2022/10/07 11:01:40;;;;;;;5.35;1.85;;;;;;;17.23;50.63;101094.48;1710129;83;21102;-75
2022/10/07 11:04:37;;;;;;;6.83;1.92;;;;;;;17.31;50.42;101101.62;1709341;83;21561;-72
2022/10/07 11:07:28;;;;;;;3.40;1.82;;;;;;;17.41;49.91;101100.34;1699560;83;21200;-72
2022/10/07 11:10:03;;;;;;;6.95;1.95;;;;;;;17.51;50.09;101090.61;1710681;83;21131;-71
2022/10/07 11:12:36;;;;;;;4.85;1.90;;;;;;;17.57;50.49;101097.73;1721617;83;21924;-72
2022/10/07 11:15:15;;;;;;;5.80;1.87;;;;;;;17.62;49.28;101080.12;1711471;83;21576;-70
2022/10/07 11:17:41;;;;;;;4.55;2.58;;;;;;;17.71;49.75;101082.62;1712328;83;21769;-71
2022/10/07 11:20:30;;;;;;;6.80;1.77;;;;;;;17.71;49.32;101096.23;1710553;83;21689;-74
2022/10/07 11:23:04;;;;;;;3.65;2.08;;;;;;;17.77;49.55;101074.77;1711044;83;20998;-74
2022/10/07 11:25:41;;;;;;;4.40;2.37;;;;;;;17.82;49.62;101081.07;1710526;83;21080;-68
2022/10/07 11:28:14;;;;;;;4.67;1.70;;;;;;;17.88;48.39;101087.91;1711046;83;21103;-68
2022/10/07 11:30:52;;;;;;;7.10;2.10;;;;;;;17.93;48.67;101087.39;1711110;83;21647;-67
2022/10/07 11:33:27;;;;;;;4.85;2.25;;;;;;;17.98;49.02;101079.80;1682717;83;21766;-69
2022/10/07 11:36:02;;;;;;;;;;;;;;;18.04;48.56;101082.26;1722632;83;21500;-69
2022/10/07 11:38:32;;;;;;;7.67;2.12;;;;;;;18.07;48.52;101080.39;1719863;82;20156;-68
2022/10/07 11:41:19;;;;;;;4.87;2.62;;;;;;;18.09;48.43;101085.01;1710492;83;21096;-73
2022/10/07 11:43:48;;;;;;;3.00;1.72;;;;;;;18.12;48.37;101065.97;1711034;83;21113;-75
2022/10/07 11:46:37;;;;;;;3.27;2.05;;;;;;;18.12;48.59;101066.80;1710538;83;21257;-75
2022/10/07 11:49:22;;;;;;;4.95;2.00;;;;;;;18.15;48.73;101073.06;1710559;83;21044;-73
2022/10/07 11:52:10;;;;;;;7.92;2.05;;;;;;;18.16;48.79;101069.80;1710607;83;21063;-72
2022/10/07 11:54:48;;;;;;;4.78;2.17;;;;;;;18.20;49.19;101075.80;1683372;84;21122;-71
2022/10/07 11:57:23;;;;;;;4.30;2.20;;;;;;;18.28;48.29;101077.19;1708891;83;21612;-73